Time;durP1;ratioP1;P1;durP2;ratioP2;P2;SDS_P1;SDS_P2;PMS_P1;PMS_P2;Temp;Humidity;BMP_temperature;BMP_pressure;BME280_temperature;BME280_humidity;BME280_pressure;Samples;Min_cycle;Max_cycle;Signal;HPM_P1;HPM_P2
2021/11/21 00:08:17;;;;;;;11.65;7.15;;;15.50;64.10;;;;;;20445894;29;20122;-82
2021/11/21 00:18:18;;;;;;;9.13;6.28;;;15.50;64.00;;;;;;20446151;29;20047;-82
2021/11/21 00:28:19;;;;;;;10.40;6.55;;;15.50;64.00;;;;;;20445593;29;20042;-82
2021/11/21 00:38:22;;;;;;;12.50;6.97;;;15.50;64.00;;;;;;20443549;29;20063;-82
2021/11/21 00:48:23;;;;;;;11.98;6.20;;;15.40;63.90;;;;;;20443029;29;20036;-82
2021/11/21 00:58:24;;;;;;;11.50;6.68;;;15.50;63.90;;;;;;20426750;29;20414;-82
2021/11/21 01:08:24;;;;;;;11.57;6.78;;;15.40;63.90;;;;;;20442473;29;20067;-81
2021/11/21 01:18:25;;;;;;;11.00;6.38;;;15.40;63.80;;;;;;20441485;29;20087;-81
2021/11/21 01:28:26;;;;;;;9.65;6.45;;;15.40;63.80;;;;;;20444647;29;20067;-81
2021/11/21 01:38:26;;;;;;;10.38;6.25;;;15.40;63.70;;;;;;20458622;29;20382;-82
2021/11/21 01:48:27;;;;;;;8.35;5.90;;;15.40;63.80;;;;;;20456862;29;20028;-81
2021/11/21 01:58:28;;;;;;;11.23;7.13;;;15.40;63.70;;;;;;20440072;29;20044;-82
2021/11/21 02:08:28;;;;;;;11.88;7.10;;;15.40;63.80;;;;;;20456696;29;20027;-81
2021/11/21 02:18:31;;;;;;;11.18;6.50;;;15.70;63.30;;;;;;20454579;29;20093;-82
2021/11/21 02:28:32;;;;;;;10.80;6.90;;;16.60;60.90;;;;;;20438652;29;20148;-81
2021/11/21 02:38:33;;;;;;;8.82;6.53;;;17.60;58.30;;;;;;20435272;29;20054;-82
2021/11/21 02:48:34;;;;;;;8.38;6.72;;;18.50;55.80;;;;;;20453134;29;20035;-81
2021/11/21 02:58:35;;;;;;;9.82;7.30;;;19.10;54.10;;;;;;20450619;29;20119;-81
2021/11/21 03:08:37;;;;;;;10.40;6.75;;;19.30;53.30;;;;;;20434836;29;20071;-83
2021/11/21 03:18:37;;;;;;;9.63;6.18;;;19.20;53.10;;;;;;20433290;29;20043;-83
2021/11/21 03:28:38;;;;;;;8.65;5.63;;;19.00;54.00;;;;;;20449945;29;20039;-82
2021/11/21 03:38:38;;;;;;;9.45;6.53;;;18.20;54.70;;;;;;20433139;29;20039;-81
2021/11/21 03:48:39;;;;;;;10.82;6.53;;;17.40;56.50;;;;;;20432088;29;20039;-81
2021/11/21 03:58:40;;;;;;;9.82;6.43;;;16.80;58.10;;;;;;20445698;28;20035;-82
2021/11/21 04:08:42;;;;;;;11.82;7.22;;;16.30;59.40;;;;;;20430737;29;20031;-82
2021/11/21 04:18:42;;;;;;;10.75;6.30;;;16.00;60.50;;;;;;20430549;29;20031;-81
2021/11/21 04:28:43;;;;;;;11.10;6.35;;;15.80;61.30;;;;;;20429220;29;20062;-81
2021/11/21 04:38:44;;;;;;;11.70;6.57;;;15.70;61.90;;;;;;20444752;29;20039;-81
2021/11/21 04:48:44;;;;;;;8.88;6.28;;;15.60;62.30;;;;;;20441853;29;20032;-80
2021/11/21 04:58:45;;;;;;;7.75;5.40;;;15.50;62.50;;;;;;20410258;29;20454;-80
2021/11/21 05:08:45;;;;;;;9.75;6.15;;;15.50;62.60;;;;;;20427652;29;20069;-80
2021/11/21 05:18:46;;;;;;;9.32;5.63;;;15.60;62.80;;;;;;20425884;29;20040;-81
2021/11/21 05:28:47;;;;;;;8.88;5.97;;;15.60;62.80;;;;;;20440592;29;20117;-81
2021/11/21 05:38:47;;;;;;;9.70;5.78;;;15.60;62.90;;;;;;20441739;29;20047;-81
2021/11/21 05:48:48;;;;;;;8.43;5.72;;;15.60;62.90;;;;;;20439574;29;20059;-81
2021/11/21 05:58:48;;;;;;;8.75;5.72;;;15.50;62.90;;;;;;20441200;29;20135;-81
2021/11/21 06:08:49;;;;;;;8.18;5.13;;;15.50;62.90;;;;;;20441330;29;20035;-81
2021/11/21 06:18:49;;;;;;;9.38;6.13;;;15.50;63.00;;;;;;20446619;29;20090;-81
2021/11/21 06:28:51;;;;;;;12.02;5.45;;;15.50;63.20;;;;;;20453197;29;20043;-81
2021/11/21 06:38:52;;;;;;;8.27;5.60;;;15.40;63.30;;;;;;20452218;29;20040;-81
2021/11/21 06:48:52;;;;;;;11.18;5.75;;;15.40;63.50;;;;;;20450226;29;20030;-81
2021/11/21 06:58:53;;;;;;;8.73;5.40;;;15.30;63.60;;;;;;20450820;29;20387;-81
2021/11/21 07:08:54;;;;;;;9.13;5.35;;;15.20;63.90;;;;;;20436209;29;20055;-81
2021/11/21 07:18:54;;;;;;;7.03;4.82;;;15.10;64.10;;;;;;20451048;29;20048;-83
2021/11/21 07:28:55;;;;;;;7.40;4.53;;;15.00;64.40;;;;;;20449688;29;20031;-79
2021/11/21 07:38:59;;;;;;;8.03;5.17;;;14.90;64.80;;;;;;20444627;29;20044;-78
2021/11/21 07:48:59;;;;;;;12.05;6.47;;;14.80;65.20;;;;;;20439834;29;20279;-80
2021/11/21 07:59:01;;;;;;;7.60;4.95;;;14.60;65.60;;;;;;20442770;29;20565;-81
2021/11/21 08:09:02;;;;;;;8.18;5.03;;;14.60;66.00;;;;;;20437505;29;20046;-77
2021/11/21 08:19:02;;;;;;;8.05;4.97;;;14.50;66.30;;;;;;20442768;29;20047;-78
2021/11/21 08:29:03;;;;;;;7.47;4.68;;;14.50;66.60;;;;;;20442616;29;20549;-82
2021/11/21 08:39:04;;;;;;;6.78;4.60;;;14.40;66.90;;;;;;20422965;29;20095;-78
2021/11/21 08:49:04;;;;;;;6.43;3.70;;;14.30;67.10;;;;;;20424037;29;20043;-80
2021/11/21 08:59:05;;;;;;;6.13;3.42;;;14.30;67.30;;;;;;20438840;29;20309;-83
2021/11/21 09:09:06;;;;;;;5.05;3.22;;;14.20;67.40;;;;;;20425936;29;20474;-83
2021/11/21 09:19:08;;;;;;;9.43;4.88;;;14.20;67.70;;;;;;20422791;29;20048;-81
2021/11/21 09:29:09;;;;;;;6.13;4.03;;;14.20;67.80;;;;;;20438892;29;20028;-79
2021/11/21 09:39:09;;;;;;;6.05;3.80;;;14.10;68.00;;;;;;20404057;29;20498;-81
2021/11/21 09:49:12;;;;;;;5.20;3.08;;;14.10;68.10;;;;;;20422322;29;20031;-80
2021/11/21 09:59:13;;;;;;;3.92;2.55;;;14.10;68.20;;;;;;20421687;29;20712;-82
2021/11/21 10:09:18;;;;;;;4.47;2.90;;;14.10;68.30;;;;;;20455857;29;20047;-79
2021/11/21 10:19:19;;;;;;;4.47;3.15;;;14.10;68.40;;;;;;20420268;29;20075;-79
2021/11/21 10:29:50;;;;;;;5.38;2.80;;;14.10;68.50;;;;;;20451562;29;20545;-81
2021/11/21 10:39:50;;;;;;;7.07;2.72;;;14.10;68.70;;;;;;20429399;29;20083;-78
2021/11/21 10:49:52;;;;;;;3.28;2.25;;;14.10;68.90;;;;;;20437982;29;20510;-80
2021/11/21 10:59:54;;;;;;;5.95;3.05;;;14.00;69.60;;;;;;20433876;29;20051;-79
2021/11/21 11:09:55;;;;;;;7.18;3.30;;;14.00;69.10;;;;;;21068076;23;20412;-79
2021/11/21 11:19:57;;;;;;;6.20;2.40;;;14.20;68.90;;;;;;20716526;28;20455;-78
2021/11/21 11:29:58;;;;;;;3.92;2.50;;;15.60;65.90;;;;;;20732630;28;20476;-80
2021/11/21 11:39:58;;;;;;;8.15;3.10;;;17.20;61.60;;;;;;20731051;28;20068;-76
2021/11/21 11:50:01;;;;;;;6.53;2.30;;;18.30;59.10;;;;;;20712925;28;20096;-76
2021/11/21 12:00:25;;;;;;;6.50;2.20;;;19.10;56.30;;;;;;20714961;28;20123;-76
2021/11/21 12:10:25;;;;;;;5.50;1.58;;;19.60;54.30;;;;;;20697157;28;20582;-80
2021/11/21 12:20:42;;;;;;;3.47;1.63;;;19.70;53.60;;;;;;20673088;28;20104;-79
2021/11/21 12:30:43;;;;;;;2.80;1.40;;;19.50;53.40;;;;;;20700409;28;20484;-79
2021/11/21 12:40:45;;;;;;;2.80;1.35;;;19.30;53.70;;;;;;20675403;28;20044;-79
2021/11/21 12:51:13;;;;;;;5.63;1.67;;;19.10;54.00;;;;;;20691606;28;20389;-78
2021/11/21 13:01:15;;;;;;;2.88;1.23;;;18.50;55.00;;;;;;20707544;28;20136;-79
2021/11/21 13:11:21;;;;;;;2.03;1.38;;;17.80;56.50;;;;;;20707236;28;20034;-74
2021/11/21 13:21:22;;;;;;;4.97;1.23;;;17.20;57.80;;;;;;20724185;28;20110;-76
2021/11/21 13:31:27;;;;;;;2.75;1.30;;;16.80;58.80;;;;;;20746748;28;20528;-76
2021/11/21 13:41:28;;;;;;;2.38;1.25;;;16.50;59.80;;;;;;20750053;28;20042;-75
2021/11/21 13:51:32;;;;;;;2.10;1.30;;;16.30;60.50;;;;;;20717929;28;20380;-75
2021/11/21 14:01:44;;;;;;;2.88;1.10;;;16.20;61.00;;;;;;20748640;28;20049;-76
2021/11/21 14:11:45;;;;;;;4.80;1.10;;;16.20;61.20;;;;;;20727868;28;20042;-77
2021/11/21 14:21:45;;;;;;;2.70;1.33;;;16.20;61.20;;;;;;20730906;28;20136;-79
2021/11/21 14:31:46;;;;;;;2.78;1.27;;;16.20;61.10;;;;;;20732390;28;20292;-80
2021/11/21 14:41:48;;;;;;;2.75;1.38;;;16.20;61.00;;;;;;20720550;28;20038;-77
2021/11/21 14:51:49;;;;;;;4.85;1.40;;;16.20;60.90;;;;;;20702966;28;20068;-75
2021/11/21 15:01:49;;;;;;;2.47;1.70;;;16.30;60.90;;;;;;20733816;28;20057;-74
2021/11/21 15:11:50;;;;;;;5.82;1.35;;;16.30;60.80;;;;;;20717654;28;20324;-75
2021/11/21 15:21:50;;;;;;;2.65;1.05;;;16.30;60.70;;;;;;20697969;28;20037;-75
2021/11/21 15:31:51;;;;;;;3.13;1.13;;;16.30;60.70;;;;;;20714378;28;20042;-78
2021/11/21 15:41:51;;;;;;;3.53;1.00;;;16.30;60.60;;;;;;20707724;28;20160;-80
2021/11/21 15:51:52;;;;;;;2.92;1.38;;;16.60;60.10;;;;;;20713263;28;20276;-81
2021/11/21 16:01:53;;;;;;;4.53;1.30;;;17.50;57.90;;;;;;20713143;28;20044;-82
2021/11/21 16:11:54;;;;;;;5.78;1.48;;;18.50;55.70;;;;;;20711871;28;20044;-81
2021/11/21 16:21:56;;;;;;;2.65;1.30;;;19.20;53.70;;;;;;20710160;28;20133;-80
2021/11/21 16:31:58;;;;;;;1.83;0.90;;;18.90;53.80;;;;;;20709456;28;20049;-80
2021/11/21 16:41:58;;;;;;;2.03;1.35;;;18.50;54.40;;;;;;20702138;28;20407;-80
2021/11/21 16:52:00;;;;;;;1.50;1.13;;;18.50;54.30;;;;;;20706371;28;20034;-79
2021/11/21 17:02:04;;;;;;;3.72;1.70;;;18.50;54.10;;;;;;20673302;28;20452;-83
2021/11/21 17:12:05;;;;;;;2.92;1.42;;;18.70;53.80;;;;;;20738075;28;20552;-80
2021/11/21 17:22:06;;;;;;;2.75;1.30;;;18.70;53.50;;;;;;20721635;28;20041;-77
2021/11/21 17:32:07;;;;;;;3.80;1.80;;;18.20;54.30;;;;;;20721696;28;20496;-80
2021/11/21 17:42:07;;;;;;;3.97;2.30;;;17.70;55.60;;;;;;20736472;28;20044;-76
2021/11/21 17:52:09;;;;;;;3.03;1.92;;;17.10;56.50;;;;;;20689181;28;20058;-80
2021/11/21 18:02:09;;;;;;;4.05;1.88;;;16.80;57.50;;;;;;20670303;28;20130;-75
2021/11/21 18:12:10;;;;;;;3.17;2.15;;;16.50;58.30;;;;;;20691876;28;20480;-76
2021/11/21 18:22:11;;;;;;;4.22;2.13;;;16.20;58.90;;;;;;20718654;28;20492;-78
2021/11/21 18:32:11;;;;;;;5.07;2.42;;;16.10;59.40;;;;;;20718297;28;20030;-76
2021/11/21 18:42:15;;;;;;;4.10;2.80;;;16.00;59.70;;;;;;20699648;28;20045;-78
2021/11/21 18:52:32;;;;;;;4.85;2.35;;;16.00;59.70;;;;;;20686327;28;20061;-78
2021/11/21 19:02:37;;;;;;;3.65;2.50;;;16.10;59.60;;;;;;20717989;28;20103;-77
2021/11/21 19:12:39;;;;;;;3.35;1.98;;;16.10;59.40;;;;;;20674014;28;20480;-79
2021/11/21 19:22:58;;;;;;;4.95;2.50;;;16.30;59.30;;;;;;20718473;28;20045;-79
2021/11/21 19:33:05;;;;;;;7.13;2.22;;;16.30;59.10;;;;;;20737482;28;20029;-79
2021/11/21 19:43:09;;;;;;;2.45;1.77;;;16.30;58.90;;;;;;20718707;28;20070;-78
2021/11/21 19:53:11;;;;;;;4.70;1.95;;;16.30;58.80;;;;;;20733377;28;20080;-79
2021/11/21 20:03:12;;;;;;;4.63;2.55;;;16.20;58.70;;;;;;20701370;28;20096;-78
2021/11/21 20:13:13;;;;;;;3.70;1.75;;;16.20;58.70;;;;;;20702324;28;20029;-78
2021/11/21 20:23:14;;;;;;;4.20;2.30;;;16.20;58.70;;;;;;20700850;28;20038;-79
2021/11/21 20:43:37;;;;;;;3.65;2.20;;;16.20;58.70;;;;;;20720323;28;20030;-78
2021/11/21 20:53:39;;;;;;;3.00;1.95;;;16.20;58.60;;;;;;20718167;28;20049;-78
2021/11/21 21:03:39;;;;;;;4.28;2.25;;;16.20;58.50;;;;;;20696997;28;20045;-78
2021/11/21 21:13:40;;;;;;;3.47;1.80;;;16.20;58.50;;;;;;20696008;28;20041;-78
2021/11/21 21:23:41;;;;;;;3.72;2.08;;;16.20;58.50;;;;;;20695151;28;20041;-78
2021/11/21 21:33:43;;;;;;;4.07;1.88;;;16.20;58.40;;;;;;20713189;28;20063;-79
2021/11/21 21:43:45;;;;;;;2.80;1.70;;;16.20;58.40;;;;;;20686802;28;20499;-78
2021/11/21 21:53:49;;;;;;;4.40;1.77;;;16.20;58.40;;;;;;20702629;28;20284;-79
2021/11/21 22:03:52;;;;;;;3.60;1.40;;;16.20;58.40;;;;;;20722904;28;20073;-78
2021/11/21 22:13:54;;;;;;;3.58;2.17;;;16.20;58.40;;;;;;20750649;28;20040;-78
2021/11/21 22:23:54;;;;;;;3.22;1.20;;;16.20;58.50;;;;;;20701943;28;20045;-78
2021/11/21 22:33:55;;;;;;;5.18;1.50;;;16.10;58.40;;;;;;20704275;28;20072;-78
2021/11/21 22:43:56;;;;;;;3.13;1.60;;;16.10;58.40;;;;;;20700183;28;20046;-78
2021/11/21 22:53:57;;;;;;;1.83;1.17;;;16.10;58.40;;;;;;20734542;28;20700;-78
2021/11/21 23:03:57;;;;;;;2.53;1.58;;;16.10;58.50;;;;;;20733575;28;20488;-78
2021/11/21 23:13:58;;;;;;;1.73;1.10;;;16.10;58.50;;;;;;20717335;28;20060;-79
2021/11/21 23:24:02;;;;;;;6.25;1.42;;;16.10;58.40;;;;;;20750030;28;20042;-78
2021/11/21 23:34:03;;;;;;;1.95;1.00;;;16.10;58.40;;;;;;20716445;28;20042;-79
2021/11/21 23:44:04;;;;;;;2.85;0.90;;;16.10;58.40;;;;;;20715365;28;20045;-77
2021/11/21 23:54:05;;;;;;;3.75;1.40;;;16.10;58.40;;;;;;20714296;28;20030;-78
